Time;durP1;ratioP1;P1;durP2;ratioP2;P2;SDS_P1;SDS_P2;PMS_P1;PMS_P2;Temp;Humidity;BMP_temperature;BMP_pressure;BME280_temperature;BME280_humidity;BME280_pressure;Samples;Min_cycle;Max_cycle;Signal;HPM_P1;HPM_P2
2023/03/27 00:01:29;;;;;;;9.95;7.45;;;;;;;4.95;91.12;97470.88;7340431;19;20006;-67
2023/03/27 00:03:54;;;;;;;11.98;8.00;;;;;;;4.86;91.06;97468.97;7338517;19;20610;-66
2023/03/27 00:06:19;;;;;;;11.90;7.57;;;;;;;4.91;91.11;97466.78;7340441;19;20359;-65
2023/03/27 00:08:51;;;;;;;10.70;7.18;;;;;;;4.99;91.38;97475.75;7339991;19;20482;-65
2023/03/27 00:11:17;;;;;;;10.48;6.60;;;;;;;5.04;91.30;97464.81;7343870;19;20015;-65
2023/03/27 00:13:43;;;;;;;11.35;7.75;;;;;;;5.00;91.19;97471.31;7346289;19;20011;-64
2023/03/27 00:16:08;;;;;;;9.68;7.05;;;;;;;5.00;91.01;97471.31;7345411;19;20082;-65
2023/03/27 00:18:33;;;;;;;8.80;6.72;;;;;;;5.00;91.18;97466.03;7344067;19;20014;-64
2023/03/27 00:20:59;;;;;;;10.82;8.23;;;;;;;4.92;90.87;97482.50;7345074;19;20723;-65
2023/03/27 00:23:24;;;;;;;10.95;7.18;;;;;;;4.93;90.92;97480.72;7342733;19;20011;-65
2023/03/27 00:25:49;;;;;;;9.55;6.57;;;;;;;4.94;90.88;97479.75;7339743;19;20014;-63
2023/03/27 00:28:15;;;;;;;9.73;7.13;;;;;;;4.99;91.32;97481.03;7342787;19;20029;-64
2023/03/27 00:30:40;;;;;;;11.45;7.40;;;;;;;5.02;91.12;97474.66;7339165;19;20473;-67
2023/03/27 00:33:07;;;;;;;10.80;7.97;;;;;;;5.04;91.19;97476.22;7338049;19;20466;-66
2023/03/27 00:35:31;;;;;;;10.30;7.07;;;;;;;5.05;91.00;97477.06;7339951;19;20090;-68
2023/03/27 00:37:57;;;;;;;10.52;7.07;;;;;;;5.06;91.03;97471.66;7345909;19;20031;-66
2023/03/27 00:40:22;;;;;;;8.90;6.43;;;;;;;5.09;91.17;97474.00;7346771;19;20041;-66
2023/03/27 00:42:50;;;;;;;11.10;7.05;;;;;;;5.11;91.12;97476.53;7344745;19;20070;-64
2023/03/27 00:45:22;;;;;;;10.00;6.88;;;;;;;5.15;91.19;97485.88;7348937;19;20031;-64
2023/03/27 00:47:55;;;;;;;8.80;6.05;;;;;;;5.15;90.98;97483.25;7346420;19;20015;-63
2023/03/27 00:50:24;;;;;;;7.75;5.70;;;;;;;5.16;91.08;97486.72;7346742;19;20007;-64
2023/03/27 00:52:55;;;;;;;10.23;6.35;;;;;;;5.14;90.74;97480.72;7345788;19;20035;-63
2023/03/27 00:55:21;;;;;;;9.45;6.57;;;;;;;5.16;91.24;97481.44;7346207;19;20022;-63
2023/03/27 00:57:50;;;;;;;9.15;6.78;;;;;;;5.15;90.60;97488.53;7345194;19;20018;-64
2023/03/27 01:00:16;;;;;;;10.45;6.55;;;;;;;5.09;90.29;97481.09;7346486;19;20018;-63
2023/03/27 01:02:43;;;;;;;11.48;7.03;;;;;;;5.03;90.05;97486.91;7350168;19;20007;-64
2023/03/27 01:05:10;;;;;;;10.52;6.70;;;;;;;5.00;90.18;97476.59;7356351;19;20132;-64
2023/03/27 01:07:36;;;;;;;9.35;7.00;;;;;;;5.03;90.64;97476.34;7352895;19;20002;-64
2023/03/27 01:10:05;;;;;;;11.75;7.68;;;;;;;5.00;90.55;97482.69;7352623;19;20042;-63
2023/03/27 01:12:39;;;;;;;11.30;7.20;;;;;;;4.95;89.77;97482.28;7351071;19;20465;-63
2023/03/27 01:15:25;;;;;;;10.63;7.40;;;;;;;4.88;89.82;97475.81;7353816;19;20026;-63
2023/03/27 01:18:07;;;;;;;10.68;7.85;;;;;;;4.93;90.10;97480.72;7354008;19;20032;-64
2023/03/27 01:21:06;;;;;;;13.73;7.90;;;;;;;4.82;89.57;97480.75;7349592;19;20098;-64
2023/03/27 01:24:07;;;;;;;10.82;7.75;;;;;;;4.73;89.40;97483.22;7347846;19;20035;-65
2023/03/27 01:26:56;;;;;;;11.88;7.93;;;;;;;4.65;89.68;97476.84;7346643;19;20018;-64
2023/03/27 01:29:58;;;;;;;10.38;7.90;;;;;;;4.62;89.70;97474.50;7344479;19;20022;-63
2023/03/27 01:33:04;;;;;;;9.40;6.03;;;;;;;4.49;89.73;97473.81;7345369;19;20029;-63
2023/03/27 01:35:51;;;;;;;10.38;6.68;;;;;;;4.50;90.33;97467.56;7348371;19;20026;-63
2023/03/27 01:38:43;;;;;;;9.27;6.47;;;;;;;4.59;90.41;97472.94;7345617;19;20042;-63
2023/03/27 01:41:18;;;;;;;9.73;6.43;;;;;;;4.57;90.41;97471.38;7345301;19;20026;-65
2023/03/27 01:43:55;;;;;;;11.25;6.43;;;;;;;4.55;90.42;97471.50;7345023;19;20007;-64
2023/03/27 01:46:25;;;;;;;10.75;7.63;;;;;;;4.54;90.30;97475.09;7342539;19;20046;-64
2023/03/27 01:48:56;;;;;;;12.75;8.30;;;;;;;4.56;90.45;97467.91;7343504;19;20011;-64
2023/03/27 01:51:33;;;;;;;13.20;8.35;;;;;;;4.56;90.50;97485.53;7342579;19;20390;-65
2023/03/27 01:54:04;;;;;;;12.23;7.75;;;;;;;4.52;90.57;97482.28;7342957;19;20116;-66
2023/03/27 01:56:36;;;;;;;10.77;6.53;;;;;;;4.40;90.23;97483.31;7347486;19;20023;-67
2023/03/27 01:59:16;;;;;;;12.57;7.15;;;;;;;4.50;90.80;97472.84;7345538;19;20350;-68
2023/03/27 02:01:47;;;;;;;10.80;7.15;;;;;;;4.47;90.83;97473.94;7342643;19;20462;-70
2023/03/27 02:04:26;;;;;;;12.20;7.68;;;;;;;4.46;90.41;97485.44;7346061;19;20039;-64
2023/03/27 02:06:56;;;;;;;14.27;7.13;;;;;;;4.38;90.50;97472.06;7342132;19;20319;-76
2023/03/27 02:09:41;;;;;;;12.48;7.47;;;;;;;4.41;90.55;97477.06;7343971;19;20013;-70
2023/03/27 02:12:23;;;;;;;12.57;7.30;;;;;;;4.45;91.20;97475.84;7342046;19;20015;-64
2023/03/27 02:14:54;;;;;;;11.30;7.70;;;;;;;4.41;91.39;97477.06;7345904;19;20043;-63
2023/03/27 02:17:46;;;;;;;12.85;7.38;;;;;;;4.35;91.28;97480.19;7340774;19;20011;-64
2023/03/27 02:20:16;;;;;;;12.95;7.93;;;;;;;4.39;91.80;97479.00;7343173;19;20018;-65
2023/03/27 02:22:44;;;;;;;13.63;7.65;;;;;;;4.37;91.70;97487.03;7348014;19;20018;-65
2023/03/27 02:25:43;;;;;;;11.20;7.47;;;;;;;4.42;91.36;97486.66;7351073;19;20041;-64
2023/03/27 02:28:33;;;;;;;10.95;7.75;;;;;;;4.35;90.79;97483.69;7342673;19;20015;-64
2023/03/27 02:31:01;;;;;;;14.18;8.05;;;;;;;4.35;91.04;97485.47;7341852;19;20010;-65
2023/03/27 02:33:35;;;;;;;12.43;8.23;;;;;;;4.28;90.94;97487.78;7341922;19;20347;-66
2023/03/27 02:36:09;;;;;;;14.25;8.75;;;;;;;4.32;91.00;97488.34;7342022;19;20010;-63
2023/03/27 02:38:53;;;;;;;13.35;8.32;;;;;;;4.42;91.64;97497.19;7341628;19;20037;-66
2023/03/27 02:41:28;;;;;;;18.42;9.43;;;;;;;4.37;91.41;97494.09;7345016;19;20007;-65
2023/03/27 02:44:26;;;;;;;15.93;9.85;;;;;;;4.30;91.16;97498.19;7350979;19;20022;-65
2023/03/27 02:46:56;;;;;;;15.35;9.48;;;;;;;4.26;91.19;97496.78;7347930;19;20014;-63
2023/03/27 02:49:37;;;;;;;15.13;10.30;;;;;;;4.21;91.36;97491.00;7355375;19;20082;-68
2023/03/27 02:52:09;;;;;;;17.27;9.77;;;;;;;4.17;91.17;97497.50;7344543;19;20018;-66
2023/03/27 02:54:39;;;;;;;17.13;9.57;;;;;;;4.21;91.62;97493.66;7350731;19;20018;-73
2023/03/27 02:57:09;;;;;;;14.85;9.23;;;;;;;4.16;91.55;97501.09;7347759;19;20082;-74
2023/03/27 03:00:11;;;;;;;20.52;11.35;;;;;;;4.12;91.80;97503.13;7347395;19;20010;-75
2023/03/27 03:02:40;;;;;;;23.55;11.40;;;;;;;4.09;91.59;97498.09;7345973;19;20015;-73
2023/03/27 03:05:09;;;;;;;23.05;11.30;;;;;;;4.09;91.60;97499.91;7348747;19;20014;-74
2023/03/27 03:07:38;;;;;;;22.52;12.05;;;;;;;4.06;91.58;97500.16;7346713;19;20024;-75
2023/03/27 03:10:10;;;;;;;16.52;10.18;;;;;;;4.10;91.64;97504.22;7344058;19;20024;-73
2023/03/27 03:12:35;;;;;;;21.42;11.25;;;;;;;3.97;91.29;97501.72;7347818;19;20003;-73
2023/03/27 03:14:59;;;;;;;18.02;8.30;;;;;;;4.00;91.54;97507.59;7344757;19;20021;-70
2023/03/27 03:17:24;;;;;;;19.98;10.18;;;;;;;3.91;91.75;97510.13;7344580;19;20026;-73
2023/03/27 03:19:49;;;;;;;18.85;9.65;;;;;;;3.94;92.08;97510.72;7342523;19;20026;-72
2023/03/27 03:22:14;;;;;;;21.10;10.65;;;;;;;3.87;91.70;97511.28;7342511;19;20023;-72
2023/03/27 03:24:43;;;;;;;17.27;9.18;;;;;;;3.90;91.74;97505.78;7342624;19;20026;-72
2023/03/27 03:27:13;;;;;;;18.75;8.80;;;;;;;3.96;91.75;97508.78;7344638;19;20098;-72
2023/03/27 03:30:00;;;;;;;15.48;8.90;;;;;;;3.87;91.57;97506.88;7342734;19;20017;-73
2023/03/27 03:32:29;;;;;;;18.95;8.43;;;;;;;3.86;91.54;97510.47;7340597;19;20496;-74
2023/03/27 03:34:55;;;;;;;18.23;9.23;;;;;;;3.92;91.84;97509.16;7342051;19;20029;-72
2023/03/27 03:37:20;;;;;;;18.90;10.25;;;;;;;3.95;91.93;97498.38;7340549;19;20019;-72
2023/03/27 03:39:45;;;;;;;13.98;7.57;;;;;;;3.95;92.00;97499.19;7342654;19;20026;-74
2023/03/27 03:42:10;;;;;;;17.45;9.15;;;;;;;3.99;92.34;97505.91;7341529;19;20006;-73
2023/03/27 03:44:36;;;;;;;14.73;7.28;;;;;;;3.98;92.42;97514.78;7340354;19;20017;-72
2023/03/27 03:47:10;;;;;;;17.65;8.45;;;;;;;3.99;93.15;97521.72;7339513;19;20074;-73
2023/03/27 03:49:35;;;;;;;16.17;7.47;;;;;;;3.96;92.96;97516.69;7341086;19;20014;-73
2023/03/27 03:52:00;;;;;;;17.50;8.98;;;;;;;3.98;92.90;97520.03;7344172;19;20028;-72
2023/03/27 03:54:25;;;;;;;14.60;7.32;;;;;;;4.05;92.93;97519.56;7341018;19;20015;-72
2023/03/27 03:56:49;;;;;;;14.95;8.13;;;;;;;4.01;93.00;97517.19;7341297;19;20417;-74
2023/03/27 03:59:16;;;;;;;13.82;7.70;;;;;;;4.01;92.97;97517.19;7342502;19;20078;-72
2023/03/27 04:02:01;;;;;;;12.70;6.80;;;;;;;4.00;92.86;97515.50;7341721;19;20042;-72
2023/03/27 04:04:29;;;;;;;13.35;8.18;;;;;;;4.03;93.16;97513.59;7340752;19;20349;-73
2023/03/27 04:07:04;;;;;;;14.93;7.50;;;;;;;4.04;92.93;97507.34;7341117;19;20022;-73
2023/03/27 04:09:32;;;;;;;14.80;7.45;;;;;;;4.09;92.77;97503.38;7342219;19;20014;-71
2023/03/27 04:12:12;;;;;;;14.00;7.32;;;;;;;4.15;93.22;97500.28;7346869;19;20476;-72
2023/03/27 04:14:58;;;;;;;16.48;8.60;;;;;;;4.11;93.49;97490.91;7346368;19;20039;-73
2023/03/27 04:17:47;;;;;;;12.50;6.75;;;;;;;4.13;93.51;97496.91;7342883;19;20082;-72
2023/03/27 04:20:12;;;;;;;20.73;8.38;;;;;;;4.07;93.53;97500.00;7344192;19;20024;-71
2023/03/27 04:22:36;;;;;;;17.08;7.85;;;;;;;4.09;93.76;97490.19;7348633;19;20015;-72
2023/03/27 04:25:05;;;;;;;16.30;8.77;;;;;;;4.07;93.46;97502.66;7344739;19;20010;-72
2023/03/27 04:27:35;;;;;;;17.10;8.38;;;;;;;4.19;93.69;97501.69;7344645;19;20023;-72
2023/03/27 04:30:15;;;;;;;18.10;9.65;;;;;;;4.26;93.96;97497.63;7344029;19;20506;-72
2023/03/27 04:32:59;;;;;;;19.80;9.25;;;;;;;4.19;94.54;97504.31;7343874;19;20741;-73
2023/03/27 04:35:38;;;;;;;20.58;9.93;;;;;;;4.14;94.61;97501.22;7344056;19;20022;-73
2023/03/27 04:38:17;;;;;;;17.85;8.88;;;;;;;4.19;94.57;97506.97;7341612;19;20022;-73
2023/03/27 04:40:48;;;;;;;14.38;8.70;;;;;;;4.25;94.53;97497.72;7344234;19;20432;-73
2023/03/27 04:43:17;;;;;;;18.40;10.27;;;;;;;4.24;94.67;97499.53;7344609;19;20022;-74
2023/03/27 04:45:46;;;;;;;17.85;9.82;;;;;;;4.18;94.38;97499.16;7344145;19;20506;-74
2023/03/27 04:48:12;;;;;;;16.42;8.77;;;;;;;4.25;94.44;97506.47;7343355;19;20046;-73
2023/03/27 04:50:37;;;;;;;19.48;10.75;;;;;;;4.29;94.09;97504.41;7342988;19;20007;-73
2023/03/27 04:53:02;;;;;;;13.75;9.10;;;;;;;4.35;94.13;97502.13;7342901;19;20022;-73
2023/03/27 04:55:36;;;;;;;16.60;9.63;;;;;;;4.39;93.65;97510.66;7344223;19;20017;-73
2023/03/27 04:58:03;;;;;;;15.52;8.40;;;;;;;4.46;93.65;97509.19;7346487;19;20009;-73
2023/03/27 05:00:29;;;;;;;15.73;8.80;;;;;;;4.43;93.38;97509.44;7344434;19;20078;-75
2023/03/27 05:03:33;;;;;;;13.00;7.63;;;;;;;4.51;93.14;97504.41;7342771;19;20027;-74
2023/03/27 05:06:18;;;;;;;16.58;9.13;;;;;;;4.57;92.80;97508.31;7346416;19;20018;-72
2023/03/27 05:08:43;;;;;;;18.50;9.05;;;;;;;4.51;92.45;97512.31;7353613;19;20047;-71
2023/03/27 05:11:19;;;;;;;11.65;7.40;;;;;;;4.50;92.48;97508.00;7342099;19;20018;-71
2023/03/27 05:13:44;;;;;;;14.98;8.05;;;;;;;4.55;92.84;97515.53;7342397;19;20039;-71
2023/03/27 05:16:11;;;;;;;19.73;9.10;;;;;;;4.51;93.47;97514.94;7342104;19;20014;-69
2023/03/27 05:18:46;;;;;;;14.35;7.20;;;;;;;4.49;93.90;97516.03;7340205;19;20015;-67
2023/03/27 05:21:12;;;;;;;14.75;8.70;;;;;;;4.34;94.13;97515.44;7342099;19;20007;-67
2023/03/27 05:23:38;;;;;;;13.38;7.05;;;;;;;4.23;93.83;97516.31;7345650;19;20520;-66
2023/03/27 05:26:05;;;;;;;12.10;7.45;;;;;;;4.30;93.91;97529.84;7343059;19;20074;-66
2023/03/27 05:28:45;;;;;;;13.48;8.43;;;;;;;4.36;93.75;97534.63;7343243;19;20015;-69
2023/03/27 05:31:11;;;;;;;12.93;7.70;;;;;;;4.32;93.15;97527.91;7344531;19;20025;-67
2023/03/27 05:33:51;;;;;;;14.65;7.18;;;;;;;4.38;92.69;97530.09;7345980;19;20010;-68
2023/03/27 05:36:18;;;;;;;14.75;8.85;;;;;;;4.35;92.35;97531.16;7347495;19;20018;-68
2023/03/27 05:38:43;;;;;;;13.73;8.52;;;;;;;4.37;92.61;97526.59;7342721;19;20022;-67
2023/03/27 05:41:11;;;;;;;17.33;9.50;;;;;;;4.28;92.52;97521.22;7347671;19;20022;-66
2023/03/27 05:43:41;;;;;;;14.90;8.90;;;;;;;4.32;92.39;97536.66;7348351;19;20022;-65
2023/03/27 05:46:06;;;;;;;17.38;9.88;;;;;;;4.32;92.57;97518.22;7348540;19;20021;-67
2023/03/27 05:48:31;;;;;;;15.18;8.30;;;;;;;4.34;92.69;97518.09;7353540;19;20024;-68
2023/03/27 05:50:59;;;;;;;14.13;8.95;;;;;;;4.32;92.61;97533.19;7347406;19;20010;-68
2023/03/27 05:53:25;;;;;;;15.52;9.05;;;;;;;4.35;92.58;97522.41;7345979;19;20474;-67
2023/03/27 05:56:09;;;;;;;15.38;9.77;;;;;;;4.47;92.41;97531.97;7347516;19;20428;-68
2023/03/27 05:58:46;;;;;;;19.13;10.07;;;;;;;4.47;92.32;97531.13;7343198;19;20025;-67
2023/03/27 06:01:11;;;;;;;18.42;9.68;;;;;;;4.50;92.44;97531.75;7344357;19;20058;-68
2023/03/27 06:03:37;;;;;;;15.73;9.15;;;;;;;4.40;91.93;97533.44;7344193;19;20379;-66
2023/03/27 06:06:09;;;;;;;15.40;8.93;;;;;;;4.44;92.10;97540.13;7343118;19;20022;-68
2023/03/27 06:08:35;;;;;;;16.40;9.52;;;;;;;4.45;92.25;97539.16;7343186;19;20010;-66
2023/03/27 06:11:11;;;;;;;15.15;9.05;;;;;;;4.46;92.32;97546.13;7343999;19;20010;-66
2023/03/27 06:13:43;;;;;;;18.83;10.70;;;;;;;4.51;92.63;97546.59;7343355;19;20010;-67
2023/03/27 06:16:19;;;;;;;19.95;10.55;;;;;;;4.45;92.69;97544.44;7344124;19;20044;-67
2023/03/27 06:19:03;;;;;;;15.45;9.32;;;;;;;4.43;92.68;97553.44;7345020;19;20662;-68
2023/03/27 06:21:28;;;;;;;17.17;9.88;;;;;;;4.33;92.56;97551.53;7344688;19;20651;-68
2023/03/27 06:23:57;;;;;;;16.27;9.38;;;;;;;4.44;92.67;97555.97;7350575;19;20007;-68
2023/03/27 06:26:22;;;;;;;17.60;10.98;;;;;;;4.50;93.21;97552.00;7350276;19;20026;-67
2023/03/27 06:28:47;;;;;;;16.25;9.27;;;;;;;4.49;93.18;97548.53;7351951;19;20015;-70
2023/03/27 06:31:13;;;;;;;17.48;9.48;;;;;;;4.61;93.07;97550.19;7347249;19;20022;-71
2023/03/27 06:33:51;;;;;;;16.77;9.35;;;;;;;4.77;93.41;97560.31;7347330;19;20024;-71
2023/03/27 06:36:40;;;;;;;15.85;8.82;;;;;;;4.78;93.68;97561.16;7351365;19;20074;-71
2023/03/27 06:39:07;;;;;;;16.27;9.75;;;;;;;4.71;93.05;97563.47;7348875;19;20010;-72
2023/03/27 06:41:32;;;;;;;13.05;7.75;;;;;;;4.81;93.23;97560.91;7348291;19;20108;-67
2023/03/27 06:44:14;;;;;;;15.80;7.63;;;;;;;4.91;93.46;97561.84;7353141;19;20019;-68
2023/03/27 06:46:56;;;;;;;11.40;6.95;;;;;;;4.89;93.73;97569.03;7348110;19;20078;-67
2023/03/27 06:49:31;;;;;;;13.27;8.38;;;;;;;4.82;93.69;97560.78;7350383;19;20026;-69
2023/03/27 06:52:01;;;;;;;16.48;8.73;;;;;;;4.77;93.57;97559.47;7350667;19;20017;-70
2023/03/27 06:54:28;;;;;;;14.48;8.02;;;;;;;4.84;93.35;97563.31;7347333;19;20023;-71
2023/03/27 06:56:54;;;;;;;13.68;8.23;;;;;;;5.02;93.58;97556.53;7350087;19;20010;-70
2023/03/27 06:59:20;;;;;;;18.75;9.25;;;;;;;5.19;94.19;97555.97;7351582;19;20504;-67
2023/03/27 07:01:48;;;;;;;16.35;9.20;;;;;;;5.27;93.74;97558.81;7359066;19;20058;-68
2023/03/27 07:04:32;;;;;;;13.30;8.38;;;;;;;5.28;93.47;97560.50;7348556;19;20029;-67
2023/03/27 07:07:09;;;;;;;21.35;9.73;;;;;;;5.43;93.63;97566.28;7342327;19;20011;-69
2023/03/27 07:09:38;;;;;;;15.43;8.18;;;;;;;5.66;93.11;97562.53;7341999;19;20017;-68
2023/03/27 07:12:05;;;;;;;13.07;7.40;;;;;;;5.86;92.07;97565.31;7344714;19;20070;-69
2023/03/27 07:14:36;;;;;;;12.23;8.10;;;;;;;6.03;91.69;97570.84;7340374;19;20011;-67
2023/03/27 07:17:01;;;;;;;12.57;7.15;;;;;;;6.12;91.98;97566.56;7342235;19;20010;-68
2023/03/27 07:19:39;;;;;;;15.30;8.32;;;;;;;6.05;92.08;97565.44;7341275;19;20101;-67
2023/03/27 07:22:08;;;;;;;12.48;8.20;;;;;;;5.87;90.70;97562.53;7340629;19;20074;-69
2023/03/27 07:24:34;;;;;;;11.20;6.95;;;;;;;6.07;90.64;97564.34;7340464;19;20011;-69
2023/03/27 07:27:00;;;;;;;14.40;8.20;;;;;;;6.18;89.56;97560.78;7345142;19;20040;-67
2023/03/27 07:29:30;;;;;;;13.13;8.07;;;;;;;6.41;90.63;97561.41;7344331;19;20013;-68
2023/03/27 07:31:55;;;;;;;11.90;7.63;;;;;;;6.55;89.92;97553.06;7345782;19;20010;-69
2023/03/27 07:34:28;;;;;;;10.65;7.38;;;;;;;6.61;90.64;97543.78;7347043;19;20010;-67
2023/03/27 07:37:17;;;;;;;12.57;7.85;;;;;;;6.59;91.21;97553.66;7346164;19;20007;-68
2023/03/27 07:40:05;;;;;;;9.98;6.82;;;;;;;6.66;90.42;97552.16;7346708;19;20041;-68
2023/03/27 07:42:30;;;;;;;12.10;7.75;;;;;;;6.50;89.76;97547.38;7346633;19;20018;-70
2023/03/27 07:45:08;;;;;;;11.32;7.63;;;;;;;6.54;87.92;97556.72;7341947;19;20014;-70
2023/03/27 07:47:34;;;;;;;10.77;6.20;;;;;;;6.62;86.52;97556.88;7341104;19;20010;-68
2023/03/27 07:49:59;;;;;;;13.27;6.60;;;;;;;6.73;86.09;97555.91;7344879;19;20010;-69
2023/03/27 07:52:24;;;;;;;12.18;7.85;;;;;;;6.93;86.96;97553.16;7346284;19;20104;-67
2023/03/27 07:54:58;;;;;;;8.77;5.90;;;;;;;6.97;85.47;97564.31;7344727;19;20017;-66
2023/03/27 07:57:46;;;;;;;10.57;6.43;;;;;;;7.07;85.45;97554.56;7343239;19;20014;-69
2023/03/27 08:00:14;;;;;;;11.52;6.53;;;;;;;7.06;85.10;97565.28;7342419;19;20023;-68
2023/03/27 08:02:46;;;;;;;9.50;5.78;;;;;;;7.06;84.70;97562.66;7340865;19;20015;-70
2023/03/27 08:05:16;;;;;;;12.63;6.75;;;;;;;7.05;85.45;97567.09;7340644;19;20019;-67
2023/03/27 08:07:46;;;;;;;8.23;6.35;;;;;;;7.13;85.82;97563.75;7342951;19;20027;-70
2023/03/27 08:10:24;;;;;;;7.55;5.18;;;;;;;7.01;85.43;97559.56;7342437;19;20034;-70
2023/03/27 08:12:55;;;;;;;8.00;5.65;;;;;;;6.97;83.99;97566.97;7341507;19;20094;-67
2023/03/27 08:15:20;;;;;;;9.25;6.20;;;;;;;6.92;84.57;97567.38;7345194;19;20014;-69
2023/03/27 08:17:46;;;;;;;9.43;5.97;;;;;;;6.96;85.04;97559.16;7345347;19;20465;-72
2023/03/27 08:20:13;;;;;;;9.88;6.05;;;;;;;6.99;83.61;97553.59;7342809;19;20027;-71
2023/03/27 08:22:45;;;;;;;6.90;4.68;;;;;;;7.40;82.89;97563.91;7343812;19;20029;-69
2023/03/27 08:25:32;;;;;;;8.38;5.82;;;;;;;7.79;81.43;97561.22;7353566;19;20422;-68
2023/03/27 08:28:03;;;;;;;11.82;7.38;;;;;;;7.82;80.09;97563.56;7356255;19;20342;-67
2023/03/27 08:30:30;;;;;;;8.20;6.15;;;;;;;7.90;80.60;97555.75;7341740;19;20025;-69
2023/03/27 08:32:57;;;;;;;12.15;6.63;;;;;;;7.89;79.56;97554.91;7340958;19;20014;-67
2023/03/27 08:35:21;;;;;;;7.07;5.40;;;;;;;8.07;80.66;97560.28;7342654;19;20014;-68
2023/03/27 08:37:47;;;;;;;10.23;6.50;;;;;;;8.30;81.11;97571.38;7337621;19;20019;-67
2023/03/27 08:40:52;;;;;;;8.63;6.05;;;;;;;8.27;80.50;97566.34;7339803;19;20014;-68
2023/03/27 08:43:43;;;;;;;9.18;6.28;;;;;;;7.95;77.14;97562.28;7338263;19;20030;-69
2023/03/27 08:46:20;;;;;;;9.70;5.60;;;;;;;8.03;78.33;97569.50;7339691;19;20022;-70
2023/03/27 08:48:52;;;;;;;7.60;6.25;;;;;;;8.02;77.69;97568.66;7342747;19;20018;-69
2023/03/27 08:51:27;;;;;;;9.00;6.53;;;;;;;8.21;78.28;97565.13;7338797;19;20043;-67
2023/03/27 08:54:03;;;;;;;8.93;5.97;;;;;;;8.37;78.05;97565.34;7338009;19;20480;-68
2023/03/27 08:56:29;;;;;;;10.02;6.93;;;;;;;8.42;76.74;97569.41;7339830;19;20021;-67
2023/03/27 08:58:57;;;;;;;9.20;6.05;;;;;;;8.55;78.29;97573.41;7342792;19;20028;-69
2023/03/27 09:01:36;;;;;;;13.18;6.35;;;;;;;8.51;79.43;97573.81;7346965;19;20824;-69
2023/03/27 09:04:12;;;;;;;9.55;5.93;;;;;;;8.55;77.97;97569.91;7344682;19;20030;-68
2023/03/27 09:06:54;;;;;;;9.73;6.93;;;;;;;9.29;78.79;97569.69;7349968;19;20015;-72
2023/03/27 09:09:33;;;;;;;8.02;5.43;;;;;;;9.94;76.74;97583.50;7345895;19;20417;-70
2023/03/27 09:11:58;;;;;;;8.85;6.82;;;;;;;9.32;72.76;97575.56;7345177;19;20007;-68
2023/03/27 09:14:43;;;;;;;10.30;6.55;;;;;;;9.39;74.78;97568.63;7344635;19;20345;-69
2023/03/27 09:17:20;;;;;;;8.48;5.80;;;;;;;10.15;74.76;97576.88;7344513;19;20048;-69
2023/03/27 09:19:56;;;;;;;9.35;5.85;;;;;;;10.53;71.15;97570.25;7344582;19;20453;-67
2023/03/27 09:22:43;;;;;;;9.57;6.47;;;;;;;10.50;73.59;97570.56;7345516;19;20014;-68
2023/03/27 09:25:27;;;;;;;10.02;7.15;;;;;;;10.55;70.64;97578.94;7348528;19;20082;-69
2023/03/27 09:27:56;;;;;;;10.23;6.55;;;;;;;11.12;70.00;97580.94;7345634;19;20466;-68
2023/03/27 09:30:43;;;;;;;10.52;6.75;;;;;;;11.12;71.14;97588.94;7345506;19;20020;-69
2023/03/27 09:33:13;;;;;;;10.10;7.28;;;;;;;10.86;71.76;97584.53;7344329;19;20014;-70
2023/03/27 09:35:41;;;;;;;8.70;6.35;;;;;;;10.59;70.29;97591.94;7344053;19;20022;-69
2023/03/27 09:38:15;;;;;;;11.30;7.80;;;;;;;10.34;69.42;97599.78;7343049;19;20062;-70
2023/03/27 09:41:02;;;;;;;9.25;6.55;;;;;;;10.28;71.22;97592.41;7348334;19;20014;-70
2023/03/27 09:43:59;;;;;;;8.98;6.47;;;;;;;10.23;69.84;97599.22;7343356;19;20014;-74
2023/03/27 09:46:27;;;;;;;11.63;6.88;;;;;;;11.80;70.16;97599.41;7344462;19;20007;-75
2023/03/27 09:49:05;;;;;;;9.00;5.38;;;;;;;14.01;64.37;97594.56;7345687;19;20014;-74
2023/03/27 09:51:42;;;;;;;9.32;5.80;;;;;;;14.93;57.26;97579.03;7347043;19;20003;-76
2023/03/27 09:54:19;;;;;;;9.00;6.63;;;;;;;14.67;56.22;97581.41;7344042;19;20022;-76
2023/03/27 09:56:52;;;;;;;11.13;5.95;;;;;;;14.45;57.31;97586.63;7343486;19;20090;-75
2023/03/27 09:59:36;;;;;;;;;;;;;;;15.63;51.66;97574.91;7344237;19;20022;-73
2023/03/27 10:02:21;;;;;;;9.90;5.88;;;;;;;15.97;53.91;97577.69;7346509;19;19946;-75
2023/03/27 10:05:02;;;;;;;6.60;5.75;;;;;;;16.47;50.70;97578.50;7343160;19;20034;-76
2023/03/27 10:07:32;;;;;;;9.07;6.38;;;;;;;16.40;50.19;97578.44;7342032;19;20070;-75
2023/03/27 10:10:19;;;;;;;6.45;5.25;;;;;;;16.12;50.92;97581.13;7344597;19;20011;-74
2023/03/27 10:13:12;;;;;;;7.47;5.60;;;;;;;16.12;51.37;97581.13;7342565;19;20478;-74
2023/03/27 10:15:47;;;;;;;7.72;5.60;;;;;;;15.57;52.28;97588.09;7343288;19;20112;-74
2023/03/27 10:18:27;;;;;;;5.75;4.72;;;;;;;15.95;54.38;97590.50;7341762;19;20010;-72
2023/03/27 10:21:38;;;;;;;9.55;5.57;;;;;;;15.36;51.20;97595.22;7348092;19;20050;-75
2023/03/27 10:24:35;;;;;;;6.65;5.03;;;;;;;14.86;55.13;97599.59;7344856;19;20010;-75
2023/03/27 10:27:35;;;;;;;12.02;5.03;;;;;;;14.32;55.96;97605.19;7341081;19;20022;-74
2023/03/27 10:30:36;;;;;;;6.70;5.70;;;;;;;14.15;55.25;97601.81;7340747;19;20014;-76
2023/03/27 10:33:32;;;;;;;8.07;6.13;;;;;;;13.96;55.76;97601.50;7341149;19;20083;-74
2023/03/27 10:36:16;;;;;;;7.07;5.72;;;;;;;13.62;56.30;97599.25;7341705;19;20569;-72
2023/03/27 10:38:43;;;;;;;7.75;6.50;;;;;;;13.26;57.07;97602.50;7345266;19;20374;-75
2023/03/27 10:41:19;;;;;;;8.40;5.85;;;;;;;12.81;58.51;97605.88;7340440;19;20010;-75
2023/03/27 10:43:49;;;;;;;11.30;5.75;;;;;;;12.76;58.58;97610.88;7340186;19;20078;-75
2023/03/27 10:46:19;;;;;;;8.82;6.07;;;;;;;13.07;58.33;97614.47;7339959;19;20018;-75
2023/03/27 10:49:09;;;;;;;9.00;6.00;;;;;;;13.13;57.43;97620.94;7339612;19;20022;-75
2023/03/27 10:52:07;;;;;;;7.80;5.50;;;;;;;13.09;58.89;97627.66;7339244;19;20017;-75
2023/03/27 10:54:59;;;;;;;9.60;6.20;;;;;;;12.43;59.47;97628.88;7339027;19;20018;-75
2023/03/27 10:57:34;;;;;;;9.20;6.18;;;;;;;12.12;60.43;97635.94;7338202;19;20339;-75
2023/03/27 11:00:19;;;;;;;9.52;6.13;;;;;;;11.76;61.24;97630.09;7338736;19;20015;-74
2023/03/27 11:02:58;;;;;;;6.32;4.80;;;;;;;11.51;63.01;97634.56;7339289;19;20026;-75
2023/03/27 11:05:31;;;;;;;6.82;5.35;;;;;;;10.87;63.84;97644.00;7343996;19;20019;-74
2023/03/27 11:08:30;;;;;;;7.47;5.75;;;;;;;10.77;65.41;97651.31;7341460;19;20014;-75
2023/03/27 11:10:59;;;;;;;10.32;5.40;;;;;;;10.44;65.66;97650.28;7341729;19;20872;-75
2023/03/27 11:13:32;;;;;;;9.68;6.78;;;;;;;10.16;66.50;97652.22;7340518;19;20030;-76
2023/03/27 11:16:25;;;;;;;10.00;5.45;;;;;;;10.14;66.63;97648.91;7341269;19;20045;-73
2023/03/27 11:19:09;;;;;;;;;;;;;;;10.23;67.09;97655.97;7341375;19;20022;-73
2023/03/27 11:22:06;;;;;;;8.40;5.55;;;;;;;9.98;68.00;97646.09;7342251;19;19930;-74
2023/03/27 11:25:12;;;;;;;10.98;6.63;;;;;;;9.69;68.51;97654.34;7340653;19;20049;-74
2023/03/27 11:27:44;;;;;;;9.40;6.47;;;;;;;9.17;70.29;97661.28;7340296;19;20027;-72
2023/03/27 11:30:31;;;;;;;7.80;5.75;;;;;;;9.27;70.92;97662.91;7343913;19;20022;-73
2023/03/27 11:33:23;;;;;;;9.07;6.82;;;;;;;9.18;71.81;97661.13;7340843;19;20058;-75
2023/03/27 11:36:21;;;;;;;14.68;5.97;;;;;;;9.37;71.75;97668.16;7340133;19;20325;-67
2023/03/27 11:39:15;;;;;;;7.68;5.85;;;;;;;9.49;71.68;97672.28;7341005;19;20084;-69
2023/03/27 11:41:51;;;;;;;8.20;5.75;;;;;;;9.40;71.51;97674.00;7342850;19;20094;-69
2023/03/27 11:44:17;;;;;;;9.52;6.53;;;;;;;9.35;71.37;97670.97;7342659;19;20462;-69
2023/03/27 11:47:37;;;;;;;11.23;6.78;;;;;;;9.37;72.00;97681.44;7341808;19;20011;-68
2023/03/27 11:50:14;;;;;;;8.95;6.55;;;;;;;9.12;72.29;97676.88;7343301;19;20014;-67
2023/03/27 11:52:51;;;;;;;8.73;6.22;;;;;;;8.90;72.89;97684.25;7341014;19;20040;-66
2023/03/27 11:55:47;;;;;;;9.98;7.10;;;;;;;8.70;73.69;97685.28;7342586;19;20023;-69
2023/03/27 11:58:43;;;;;;;9.10;7.13;;;;;;;8.64;74.12;97691.19;7342690;19;20458;-68
2023/03/27 12:01:25;;;;;;;9.15;6.38;;;;;;;8.55;74.59;97681.44;7341135;19;20351;-69
2023/03/27 12:04:12;;;;;;;9.70;7.07;;;;;;;8.42;75.28;97697.69;7342625;19;20011;-68
2023/03/27 12:07:17;;;;;;;12.55;6.85;;;;;;;8.43;76.08;97690.56;7343291;19;20477;-68
2023/03/27 12:09:54;;;;;;;10.27;6.90;;;;;;;8.42;76.01;97696.84;7342448;19;20017;-67
2023/03/27 12:13:23;;;;;;;8.80;6.07;;;;;;;8.53;75.92;97696.69;7340168;19;20018;-67